Time;durP1;ratioP1;P1;durP2;ratioP2;P2;SDS_P1;SDS_P2;PMS_P1;PMS_P2;Temp;Humidity;BMP_temperature;BMP_pressure;BME280_temperature;BME280_humidity;BME280_pressure;Samples;Min_cycle;Max_cycle;Signal;HPM_P1;HPM_P2
2021/12/23 00:00:16;;;;;;;27.17;18.15;;;;;;;-1.94;83.54;101657.38;5030085;28;20476;-68
2021/12/23 00:02:42;;;;;;;28.38;17.42;;;;;;;-1.94;83.81;101663.41;5040095;28;20033;-67
2021/12/23 00:05:09;;;;;;;28.35;17.95;;;;;;;-1.94;83.78;101650.41;5049972;28;20075;-67
2021/12/23 00:07:36;;;;;;;23.58;17.00;;;;;;;-1.93;83.75;101638.25;5045564;28;20380;-67
2021/12/23 00:10:06;;;;;;;26.35;17.98;;;;;;;-1.95;83.76;101632.19;5045044;28;20068;-68
2021/12/23 00:12:39;;;;;;;26.00;17.75;;;;;;;-1.96;83.50;101628.75;5052595;28;20699;-68
2021/12/23 00:15:15;;;;;;;24.27;17.00;;;;;;;-1.97;83.35;101626.16;5044775;28;20472;-67
2021/12/23 00:17:56;;;;;;;24.08;16.67;;;;;;;-1.97;83.55;101629.59;5052861;28;20112;-68
2021/12/23 00:25:34;;;;;;;24.48;16.50;;;;;;;-2.00;83.14;101605.38;5053851;28;20426;-68
2021/12/23 00:28:00;;;;;;;24.40;16.90;;;;;;;-2.02;83.48;101613.19;5051137;28;20025;-68
2021/12/23 00:30:26;;;;;;;27.70;17.35;;;;;;;-2.03;83.42;101595.88;5051745;28;20033;-67
2021/12/23 00:32:51;;;;;;;24.63;17.60;;;;;;;-2.03;83.32;101585.44;5049558;28;20480;-67
2021/12/23 00:35:17;;;;;;;23.13;17.45;;;;;;;-2.02;83.79;101573.28;5053161;28;20053;-67
2021/12/23 00:37:46;;;;;;;27.00;17.80;;;;;;;-2.03;83.15;101572.44;5051144;28;20049;-67
2021/12/23 00:40:13;;;;;;;27.10;18.35;;;;;;;-2.03;83.53;101571.56;5053266;28;20051;-68
2021/12/23 00:42:40;;;;;;;27.95;18.05;;;;;;;-2.03;83.31;101574.16;5044198;28;20025;-68
2021/12/23 00:45:06;;;;;;;28.83;17.13;;;;;;;-2.03;83.24;101579.38;5051814;28;20029;-67
2021/12/23 00:47:32;;;;;;;26.73;17.42;;;;;;;-2.05;83.40;101568.97;5040170;28;20091;-67
2021/12/23 00:49:58;;;;;;;25.88;17.15;;;;;;;-2.04;83.38;101570.69;5049446;28;20478;-67
2021/12/23 00:52:36;;;;;;;25.42;17.67;;;;;;;-2.04;83.09;101562.91;5052869;28;20112;-67
2021/12/23 00:55:06;;;;;;;27.42;18.63;;;;;;;-2.04;83.16;101555.09;5048645;28;20384;-67
2021/12/23 00:57:37;;;;;;;27.05;18.48;;;;;;;-2.01;83.19;101564.63;5051564;28;20029;-67
2021/12/23 01:00:06;;;;;;;26.23;16.85;;;;;;;-2.02;83.07;101570.69;5052695;28;20021;-68
2021/12/23 01:02:33;;;;;;;26.50;17.77;;;;;;;-1.99;83.25;101591.47;5047312;28;20025;-67
2021/12/23 01:04:59;;;;;;;26.25;17.52;;;;;;;-2.00;83.43;101582.78;5047396;28;20025;-67
2021/12/23 01:07:25;;;;;;;29.70;18.05;;;;;;;-1.99;83.47;101583.66;5039710;28;20029;-68
2021/12/23 01:09:51;;;;;;;26.20;16.73;;;;;;;-1.97;83.53;101584.50;5049234;28;20115;-67
2021/12/23 01:12:20;;;;;;;28.00;18.65;;;;;;;-1.99;83.20;101576.72;5050728;28;20558;-67
2021/12/23 01:14:59;;;;;;;23.83;16.75;;;;;;;-1.98;83.46;101581.03;5052671;28;20021;-68
2021/12/23 01:19:56;;;;;;;26.67;17.40;;;;;;;-1.95;83.66;101570.59;5050780;28;20127;-68
2021/12/23 01:22:22;;;;;;;26.50;18.95;;;;;;;-1.93;83.69;101565.34;5047594;28;20029;-68
2021/12/23 01:24:49;;;;;;;24.15;16.90;;;;;;;-1.94;83.43;101559.28;5044153;28;20041;-68
2021/12/23 01:27:16;;;;;;;24.02;16.80;;;;;;;-1.93;83.49;101562.75;5044413;28;20426;-67
2021/12/23 01:29:42;;;;;;;25.90;17.45;;;;;;;-1.92;83.90;101561.88;5051142;28;20067;-68
2021/12/23 01:32:08;;;;;;;26.98;17.75;;;;;;;-1.93;83.48;101555.81;5047878;28;20441;-68
2021/12/23 01:34:35;;;;;;;25.52;16.95;;;;;;;-1.92;83.28;101551.47;5050645;28;20041;-68
2021/12/23 01:37:04;;;;;;;25.40;17.13;;;;;;;-1.94;82.88;101542.81;5040631;28;20029;-68
2021/12/23 01:39:30;;;;;;;27.85;18.25;;;;;;;-1.94;83.21;101542.81;5044243;28;20520;-68
2021/12/23 01:41:56;;;;;;;23.90;17.33;;;;;;;-1.95;83.19;101531.56;5049058;28;20033;-69
2021/12/23 01:44:21;;;;;;;26.52;17.45;;;;;;;-1.95;83.06;101533.28;5047610;28;20053;-68
2021/12/23 01:46:47;;;;;;;26.25;17.80;;;;;;;-1.95;83.29;101538.47;5049518;28;20024;-68
2021/12/23 01:49:12;;;;;;;28.20;18.23;;;;;;;-1.95;83.33;101530.66;5051988;28;20087;-68
2021/12/23 01:51:38;;;;;;;29.52;18.48;;;;;;;-1.95;83.25;101536.75;5050701;28;20051;-67
2021/12/23 01:54:04;;;;;;;26.73;18.48;;;;;;;-1.94;83.18;101533.25;5050526;28;20032;-68
2021/12/23 01:56:30;;;;;;;25.23;16.38;;;;;;;-1.96;83.23;101519.41;5051794;28;20108;-67
2021/12/23 01:58:55;;;;;;;27.05;17.50;;;;;;;-1.95;83.25;101521.13;5051630;28;20024;-68
2021/12/23 02:01:21;;;;;;;25.08;17.80;;;;;;;-1.94;83.55;101521.97;5050540;28;20112;-68
2021/12/23 02:03:47;;;;;;;24.75;16.95;;;;;;;-1.94;83.28;101515.03;5049534;28;20083;-66
2021/12/23 02:06:12;;;;;;;25.45;17.95;;;;;;;-1.93;83.22;101503.75;5051766;28;20052;-67
2021/12/23 02:08:45;;;;;;;27.25;17.30;;;;;;;-1.93;83.14;101502.84;5042141;28;20029;-66
2021/12/23 02:11:11;;;;;;;26.80;18.77;;;;;;;-1.93;82.90;101495.94;5051533;28;20079;-66
2021/12/23 02:13:37;;;;;;;24.65;17.40;;;;;;;-1.94;83.21;101486.38;5047624;28;20025;-66
2021/12/23 02:16:04;;;;;;;25.35;17.33;;;;;;;-1.94;83.02;101494.19;5051495;28;20029;-66
2021/12/23 02:18:30;;;;;;;28.23;18.70;;;;;;;-1.94;82.88;101495.94;5051344;28;20124;-69
2021/12/23 02:20:57;;;;;;;24.27;16.65;;;;;;;-1.95;82.69;101489.00;5037753;28;20124;-66
2021/12/23 02:23:24;;;;;;;32.05;18.33;;;;;;;-1.97;82.77;101483.81;5051202;28;20100;-67
2021/12/23 02:25:50;;;;;;;28.17;17.95;;;;;;;-1.97;83.11;101489.03;5045567;28;20021;-66
2021/12/23 02:28:17;;;;;;;24.25;16.52;;;;;;;-1.96;82.59;101488.16;5043578;28;20044;-67
2021/12/23 02:30:44;;;;;;;26.85;17.40;;;;;;;-1.98;82.86;101494.25;5050934;28;20028;-68
2021/12/23 02:33:10;;;;;;;30.05;17.15;;;;;;;-1.99;82.40;101496.00;5050447;28;20029;-68
2021/12/23 02:35:38;;;;;;;25.42;17.63;;;;;;;-1.99;82.69;101502.97;5046836;28;20041;-67
2021/12/23 02:38:04;;;;;;;25.67;17.52;;;;;;;-2.00;82.49;101504.69;5041661;28;20036;-68
2021/12/23 02:40:34;;;;;;;29.27;18.27;;;;;;;-2.01;82.64;101504.75;5049865;28;20029;-68
2021/12/23 02:43:11;;;;;;;25.63;17.65;;;;;;;-2.05;82.75;101499.56;5042218;28;20040;-67
2021/12/23 02:45:38;;;;;;;26.30;17.60;;;;;;;-2.08;82.69;101503.97;5043353;28;20471;-67
2021/12/23 02:48:03;;;;;;;27.33;19.25;;;;;;;-2.10;82.89;101501.38;5045771;28;20032;-67
2021/12/23 02:50:29;;;;;;;28.65;17.75;;;;;;;-2.10;83.05;101498.78;5037466;28;20032;-67
2021/12/23 02:52:58;;;;;;;34.22;18.05;;;;;;;-2.10;82.61;101492.69;5051026;28;20037;-67
2021/12/23 02:55:23;;;;;;;24.98;17.52;;;;;;;-2.10;82.73;101474.47;5051624;28;20110;-67
2021/12/23 02:57:50;;;;;;;22.85;16.55;;;;;;;-2.11;82.69;101467.56;5049270;28;20029;-67
2021/12/23 03:00:16;;;;;;;30.27;17.75;;;;;;;-2.14;82.59;101467.59;5035078;28;20064;-67
2021/12/23 03:02:42;;;;;;;27.30;17.73;;;;;;;-2.17;82.68;101468.50;5061588;28;20017;-67
2021/12/23 03:05:08;;;;;;;27.25;18.30;;;;;;;-2.19;82.86;101470.25;5042385;28;20025;-67
2021/12/23 03:07:34;;;;;;;29.98;18.55;;;;;;;-2.21;82.95;101456.41;5050107;28;20028;-67
2021/12/23 03:10:02;;;;;;;25.77;17.38;;;;;;;-2.23;82.94;101458.19;5048432;28;20427;-67
2021/12/23 03:12:27;;;;;;;28.25;17.85;;;;;;;-2.26;82.84;101463.44;5050842;28;20104;-67
2021/12/23 03:14:52;;;;;;;28.38;18.85;;;;;;;-2.30;83.16;101462.59;5050172;28;20152;-67
2021/12/23 03:17:18;;;;;;;23.90;17.98;;;;;;;-2.32;83.03;101450.50;5041671;28;20025;-67
2021/12/23 03:19:43;;;;;;;27.27;18.55;;;;;;;-2.34;83.33;101444.44;5050701;28;20025;-66
2021/12/23 03:22:09;;;;;;;26.42;18.08;;;;;;;-2.37;83.45;101440.13;5042245;28;20061;-67
2021/12/23 03:24:34;;;;;;;27.90;18.23;;;;;;;-2.41;83.31;101446.28;5049029;28;20113;-67
2021/12/23 03:27:00;;;;;;;28.13;18.52;;;;;;;-2.40;83.68;101428.91;5051059;28;20468;-67
2021/12/23 03:29:26;;;;;;;25.40;18.20;;;;;;;-2.43;83.65;101422.88;5049407;28;20040;-67
2021/12/23 03:31:52;;;;;;;26.58;18.67;;;;;;;-2.44;83.69;101413.34;5046924;28;20029;-67
2021/12/23 03:34:17;;;;;;;27.90;18.55;;;;;;;-2.46;83.78;101398.66;5049449;28;20060;-67
2021/12/23 03:36:43;;;;;;;27.50;18.77;;;;;;;-2.49;83.95;101399.53;5051386;28;20112;-67
2021/12/23 03:39:09;;;;;;;31.08;20.10;;;;;;;-2.50;84.02;101421.25;5042412;28;20036;-67
2021/12/23 03:41:34;;;;;;;28.85;20.65;;;;;;;-2.51;84.09;101409.13;5050935;28;20083;-67
2021/12/23 03:44:00;;;;;;;29.63;20.25;;;;;;;-2.53;84.16;101395.28;5044646;28;20392;-67
2021/12/23 03:46:25;;;;;;;29.40;19.20;;;;;;;-2.54;84.30;101390.09;5052480;28;20391;-68
2021/12/23 03:48:52;;;;;;;27.08;19.33;;;;;;;-2.55;84.51;101381.41;5053415;28;20171;-67
2021/12/23 03:51:19;;;;;;;29.58;20.08;;;;;;;-2.56;84.33;101384.06;5052166;28;20384;-67
2021/12/23 03:53:45;;;;;;;28.30;19.08;;;;;;;-2.57;84.59;101383.19;5042764;28;20391;-67
2021/12/23 03:56:10;;;;;;;28.73;19.58;;;;;;;-2.57;84.59;101354.56;5047393;28;21603;-67
2021/12/23 03:58:36;;;;;;;31.30;20.25;;;;;;;-2.56;84.55;101351.09;5051372;28;20353;-67
2021/12/23 04:01:03;;;;;;;32.92;20.50;;;;;;;-2.57;85.04;101353.72;5053841;28;20510;-67
2021/12/23 04:03:29;;;;;;;31.73;20.20;;;;;;;-2.57;85.00;101346.78;5035796;28;20048;-67
2021/12/23 04:05:54;;;;;;;33.97;21.70;;;;;;;-2.55;85.01;101363.22;5048016;28;20083;-67
2021/12/23 04:08:20;;;;;;;32.33;21.80;;;;;;;-2.53;84.96;101366.66;5048033;28;20027;-67
2021/12/23 04:10:45;;;;;;;34.25;21.45;;;;;;;-2.52;85.23;101368.38;5046047;28;20082;-67
2021/12/23 04:13:11;;;;;;;29.58;20.58;;;;;;;-2.51;85.10;101364.91;5053050;28;20057;-67
2021/12/23 04:15:37;;;;;;;33.50;22.52;;;;;;;-2.49;85.19;101344.06;5054233;28;20406;-67
2021/12/23 04:18:03;;;;;;;30.73;20.45;;;;;;;-2.48;85.27;101337.97;5053999;28;20035;-67
2021/12/23 04:20:46;;;;;;;32.55;22.58;;;;;;;-2.48;85.31;101341.44;5052881;28;20029;-67
2021/12/23 04:23:12;;;;;;;31.52;22.85;;;;;;;-2.47;85.48;101339.69;5051683;28;20044;-67
2021/12/23 04:25:37;;;;;;;34.60;23.20;;;;;;;-2.46;85.38;101342.28;5040756;28;20396;-66
2021/12/23 04:28:04;;;;;;;35.25;22.30;;;;;;;-2.44;85.26;101347.47;5054012;28;20035;-66
2021/12/23 04:30:30;;;;;;;34.35;22.15;;;;;;;-2.43;85.34;101357.00;5049634;28;20395;-67
2021/12/23 04:32:55;;;;;;;31.88;22.02;;;;;;;-2.43;85.31;101357.84;5043505;28;20028;-67
2021/12/23 04:35:22;;;;;;;33.85;22.63;;;;;;;-2.44;85.42;101337.91;5054208;28;20055;-66
2021/12/23 04:37:47;;;;;;;38.85;23.67;;;;;;;-2.43;85.25;101321.44;5052837;28;20329;-67
2021/12/23 04:40:14;;;;;;;37.67;23.23;;;;;;;-2.42;85.20;101322.28;5047832;28;20025;-67
2021/12/23 04:42:40;;;;;;;35.10;24.05;;;;;;;-2.41;85.43;101337.03;5053770;28;20113;-67
2021/12/23 04:45:07;;;;;;;37.28;23.70;;;;;;;-2.42;85.14;101317.09;5045723;28;20036;-67
2021/12/23 04:47:33;;;;;;;35.03;23.60;;;;;;;-2.43;85.59;101305.81;5052997;28;20029;-67
2021/12/23 04:49:58;;;;;;;37.05;23.67;;;;;;;-2.42;85.50;101306.69;5040289;28;20037;-67
2021/12/23 04:52:24;;;;;;;36.75;23.83;;;;;;;-2.40;85.31;101311.84;5051995;28;20036;-67
2021/12/23 04:54:50;;;;;;;41.65;25.02;;;;;;;-2.40;85.47;101311.84;5053367;28;20035;-67
2021/12/23 04:57:15;;;;;;;39.10;24.33;;;;;;;-2.40;85.35;101301.44;5051069;28;20040;-67
2021/12/23 04:59:42;;;;;;;37.15;24.45;;;;;;;-2.39;85.38;101288.44;5046402;28;20025;-68
2021/12/23 05:02:07;;;;;;;39.75;25.25;;;;;;;-2.37;85.38;101286.66;5049937;28;20368;-67
2021/12/23 05:04:33;;;;;;;38.50;25.23;;;;;;;-2.35;85.40;101284.03;5050630;28;20116;-67
2021/12/23 05:06:58;;;;;;;37.72;25.58;;;;;;;-2.34;85.57;101283.16;5038611;28;20051;-68
2021/12/23 05:09:24;;;;;;;40.83;25.63;;;;;;;-2.33;85.45;101282.25;5052267;28;20112;-67
2021/12/23 05:11:49;;;;;;;39.67;24.63;;;;;;;-2.32;85.60;101276.19;5050605;28;20013;-67
2021/12/23 05:14:16;;;;;;;38.72;26.05;;;;;;;-2.30;85.54;101279.59;5038730;28;20273;-66
2021/12/23 05:16:41;;;;;;;41.40;26.23;;;;;;;-2.30;85.52;101280.50;5051200;28;20283;-67
2021/12/23 05:19:10;;;;;;;39.30;26.83;;;;;;;-2.29;85.57;101283.94;5050825;28;20110;-67
2021/12/23 05:21:35;;;;;;;39.80;26.13;;;;;;;-2.27;85.45;101284.75;5048793;28;20037;-67
2021/12/23 05:24:00;;;;;;;41.05;26.00;;;;;;;-2.26;85.37;101273.47;5046771;28;20025;-67
2021/12/23 05:26:26;;;;;;;38.03;25.27;;;;;;;-2.26;85.47;101271.72;5048254;28;20044;-67
2021/12/23 05:28:52;;;;;;;44.58;27.85;;;;;;;-2.25;85.61;101263.06;5047132;28;20333;-67
2021/12/23 05:31:17;;;;;;;41.50;25.85;;;;;;;-2.24;85.53;101264.75;5052125;28;20029;-68
2021/12/23 05:33:42;;;;;;;43.47;26.20;;;;;;;-2.22;85.50;101256.06;5052433;28;20086;-68
2021/12/23 05:36:08;;;;;;;43.30;27.70;;;;;;;-2.20;85.31;101269.91;5049635;28;20032;-67
2021/12/23 05:38:33;;;;;;;41.45;26.15;;;;;;;-2.19;85.75;101267.28;5053339;28;20110;-67
2021/12/23 05:40:59;;;;;;;41.72;27.00;;;;;;;-2.18;85.53;101269.00;5056222;28;20071;-68
2021/12/23 05:43:24;;;;;;;43.53;27.88;;;;;;;-2.16;85.39;101261.19;5049042;28;20040;-67
2021/12/23 05:45:50;;;;;;;47.75;28.88;;;;;;;-2.16;85.38;101250.78;5052105;28;20021;-68
2021/12/23 05:48:15;;;;;;;43.28;27.77;;;;;;;-2.13;85.62;101253.28;5051682;28;20045;-68
2021/12/23 05:50:41;;;;;;;41.35;28.20;;;;;;;-2.12;85.60;101236.81;5050133;28;20095;-67
2021/12/23 05:53:07;;;;;;;46.58;27.70;;;;;;;-2.11;85.49;101235.94;5051954;28;20399;-67
2021/12/23 05:55:32;;;;;;;47.20;29.27;;;;;;;-2.12;85.51;101245.47;5051990;28;20024;-68
2021/12/23 05:57:58;;;;;;;45.63;28.45;;;;;;;-2.09;85.39;101253.22;5040104;28;20103;-67
2021/12/23 06:00:27;;;;;;;42.72;27.25;;;;;;;-2.06;85.32;101252.31;5047573;28;20408;-67
2021/12/23 06:02:53;;;;;;;49.30;29.23;;;;;;;-2.05;85.38;101251.41;5045090;28;20036;-67
2021/12/23 06:05:20;;;;;;;46.40;28.10;;;;;;;-2.05;85.26;101239.28;5051690;28;20494;-67
2021/12/23 06:07:46;;;;;;;44.53;29.08;;;;;;;-2.04;85.32;101253.16;5051368;28;20411;-67
2021/12/23 06:10:14;;;;;;;50.30;30.08;;;;;;;-2.03;85.65;101259.19;5049629;28;20547;-67
2021/12/23 06:12:41;;;;;;;45.97;29.20;;;;;;;-2.01;85.03;101258.31;5045802;28;20073;-66
2021/12/23 06:15:07;;;;;;;46.88;29.88;;;;;;;-2.02;85.08;101242.72;5043375;28;20098;-67
2021/12/23 06:17:33;;;;;;;51.92;30.17;;;;;;;-2.01;85.43;101249.66;5051104;28;20025;-67
2021/12/23 06:19:59;;;;;;;47.70;29.77;;;;;;;-1.99;85.18;101234.84;5051434;28;20434;-68
2021/12/23 06:22:24;;;;;;;49.13;31.05;;;;;;;-1.99;85.24;101235.69;5043945;28;20087;-66
2021/12/23 06:24:50;;;;;;;46.45;30.63;;;;;;;-1.98;85.17;101227.00;5051428;28;20028;-66
2021/12/23 06:27:17;;;;;;;50.42;31.05;;;;;;;-1.97;85.25;101223.50;5051414;28;20025;-66
2021/12/23 06:29:43;;;;;;;45.78;29.10;;;;;;;-1.97;85.20;101220.91;5048318;28;20063;-68
2021/12/23 06:32:08;;;;;;;49.72;30.55;;;;;;;-1.98;85.19;101224.41;5042611;28;20060;-65
2021/12/23 06:34:34;;;;;;;47.83;30.90;;;;;;;-1.96;85.13;101214.81;5047858;28;20102;-68
2021/12/23 06:37:00;;;;;;;48.65;30.25;;;;;;;-1.95;85.29;101213.06;5051130;28;20499;-66
2021/12/23 06:39:26;;;;;;;46.92;29.73;;;;;;;-1.95;85.42;101213.94;5044362;28;20021;-66
2021/12/23 06:41:51;;;;;;;44.20;28.75;;;;;;;-1.93;85.27;101212.16;5051087;28;20037;-66
2021/12/23 06:44:17;;;;;;;49.47;29.23;;;;;;;-1.92;85.23;101197.41;5051685;28;20028;-66
2021/12/23 06:46:42;;;;;;;45.25;28.48;;;;;;;-1.93;85.21;101193.06;5048581;28;20387;-67
2021/12/23 06:49:08;;;;;;;45.63;27.77;;;;;;;-1.93;85.11;101195.66;5040418;28;20029;-65
2021/12/23 06:51:33;;;;;;;44.35;29.45;;;;;;;-1.92;85.39;101200.84;5049371;28;20336;-66
2021/12/23 06:54:01;;;;;;;46.75;28.15;;;;;;;-1.92;85.50;101197.41;5051183;28;20521;-66
2021/12/23 06:56:27;;;;;;;44.63;28.17;;;;;;;-1.92;85.52;101198.25;5051645;28;20032;-65
2021/12/23 06:58:52;;;;;;;44.33;26.80;;;;;;;-1.90;85.34;101204.31;5042237;28;20036;-66
2021/12/23 07:01:20;;;;;;;46.53;28.52;;;;;;;-1.89;85.45;101197.34;5049250;28;20029;-67
2021/12/23 07:06:32;;;;;;;45.88;27.42;;;;;;;-1.88;85.39;101194.72;5034573;28;20098;-67
2021/12/23 07:09:00;;;;;;;46.53;27.67;;;;;;;-1.86;85.50;101200.75;5036787;28;20487;-67
2021/12/23 07:11:25;;;;;;;48.20;28.05;;;;;;;-1.84;85.47;101202.47;5039945;28;20032;-67
2021/12/23 07:13:51;;;;;;;47.88;28.27;;;;;;;-1.83;85.38;101199.84;5048029;28;20033;-67
2021/12/23 07:16:17;;;;;;;44.00;27.23;;;;;;;-1.83;85.42;101186.81;5049193;28;20067;-67
2021/12/23 07:18:43;;;;;;;47.72;27.45;;;;;;;-1.81;85.69;101184.19;5048020;28;20032;-68
2021/12/23 07:21:08;;;;;;;44.38;26.50;;;;;;;-1.81;85.62;101184.19;5046536;28;20086;-67
2021/12/23 07:23:34;;;;;;;43.35;26.45;;;;;;;-1.80;85.83;101189.34;5048085;28;20395;-68
2021/12/23 07:25:59;;;;;;;43.33;26.42;;;;;;;-1.78;85.58;101194.50;5047902;28;20093;-67
2021/12/23 07:28:25;;;;;;;45.03;26.17;;;;;;;-1.78;85.61;101198.00;5037060;28;20427;-67
2021/12/23 07:30:50;;;;;;;43.63;27.77;;;;;;;-1.76;85.33;101191.00;5034400;28;20049;-67
2021/12/23 07:33:16;;;;;;;45.38;27.70;;;;;;;-1.74;85.44;101190.97;5039496;28;20017;-67
2021/12/23 07:35:41;;;;;;;44.25;25.63;;;;;;;-1.73;85.64;101206.56;5045511;28;20049;-67
2021/12/23 07:38:07;;;;;;;49.85;27.77;;;;;;;-1.73;85.65;101200.53;5058003;28;20033;-66
2021/12/23 07:40:33;;;;;;;39.67;25.77;;;;;;;-1.70;85.96;101200.44;5048811;28;20407;-67
2021/12/23 07:43:20;;;;;;;43.80;26.10;;;;;;;-1.69;85.74;101196.94;5043776;28;20021;-66
2021/12/23 07:45:45;;;;;;;44.95;26.15;;;;;;;-1.66;85.61;101201.25;5046319;28;20032;-67
2021/12/23 07:48:11;;;;;;;43.22;27.15;;;;;;;-1.64;85.78;101210.72;5041339;28;20037;-66
2021/12/23 07:50:37;;;;;;;41.08;24.77;;;;;;;-1.63;85.75;101199.44;5031378;28;20393;-67
2021/12/23 07:53:03;;;;;;;43.15;27.02;;;;;;;-1.61;85.63;101207.22;5046294;28;20191;-67
2021/12/23 07:55:28;;;;;;;47.10;26.00;;;;;;;-1.59;85.76;101200.22;5053353;28;20473;-67
2021/12/23 07:57:54;;;;;;;43.67;27.15;;;;;;;-1.58;85.58;101195.00;5047399;28;20476;-67
2021/12/23 08:00:20;;;;;;;43.17;26.13;;;;;;;-1.57;85.55;101193.22;5044514;28;20369;-67
2021/12/23 08:02:45;;;;;;;42.22;26.67;;;;;;;-1.57;85.71;101185.41;5046085;28;20025;-67
2021/12/23 08:05:11;;;;;;;44.63;26.92;;;;;;;-1.53;86.04;101187.94;5040303;28;20017;-67
2021/12/23 08:07:36;;;;;;;45.85;26.55;;;;;;;-1.50;86.13;101184.38;5041146;28;20578;-68
2021/12/23 08:10:03;;;;;;;44.55;27.00;;;;;;;-1.48;85.64;101182.63;5033559;28;20432;-67
2021/12/23 08:12:28;;;;;;;41.38;24.98;;;;;;;-1.45;85.77;101185.16;5034034;28;20451;-67
2021/12/23 08:14:53;;;;;;;45.28;26.25;;;;;;;-1.44;85.57;101186.88;5033764;28;20021;-67
2021/12/23 08:17:19;;;;;;;43.50;26.58;;;;;;;-1.43;85.56;101188.59;5034277;28;20025;-67
2021/12/23 08:19:45;;;;;;;40.85;25.90;;;;;;;-1.40;85.80;101179.84;5034969;28;20562;-68
2021/12/23 08:22:10;;;;;;;45.75;27.50;;;;;;;-1.40;85.58;101183.34;5027827;28;20109;-68
2021/12/23 08:24:36;;;;;;;44.65;27.80;;;;;;;-1.38;85.57;101176.34;5031074;28;20017;-67
2021/12/23 08:27:04;;;;;;;44.55;27.00;;;;;;;-1.35;85.69;101167.56;5041547;28;20093;-67
2021/12/23 08:29:31;;;;;;;44.97;27.02;;;;;;;-1.32;85.90;101172.72;5043423;28;20017;-67
2021/12/23 08:31:56;;;;;;;42.67;26.17;;;;;;;-1.31;85.96;101167.47;5042216;28;20063;-67
2021/12/23 08:34:25;;;;;;;43.80;26.27;;;;;;;-1.28;85.71;101157.88;5053696;28;20041;-68
2021/12/23 08:36:53;;;;;;;43.92;25.05;;;;;;;-1.28;85.79;101158.75;5048836;28;20032;-67
2021/12/23 08:39:19;;;;;;;45.30;26.25;;;;;;;-1.29;85.34;101151.81;5048303;28;20425;-67
2021/12/23 08:41:45;;;;;;;43.92;25.92;;;;;;;-1.25;85.57;101155.19;5042937;28;20032;-68
2021/12/23 08:44:11;;;;;;;44.83;27.33;;;;;;;-1.23;85.39;101143.88;5044867;28;20411;-68
2021/12/23 08:46:36;;;;;;;45.30;26.63;;;;;;;-1.21;85.46;101143.84;5050475;28;20025;-67
2021/12/23 08:49:04;;;;;;;43.88;26.27;;;;;;;-1.20;85.68;101138.59;5050969;28;20508;-68
2021/12/23 08:51:29;;;;;;;45.75;26.55;;;;;;;-1.14;85.60;101140.19;5041308;28;20491;-68
2021/12/23 08:53:54;;;;;;;43.75;26.17;;;;;;;-1.13;85.39;101136.69;5049726;28;20052;-68
2021/12/23 08:56:20;;;;;;;44.03;25.85;;;;;;;-1.11;85.52;101137.50;5049155;28;20030;-68
2021/12/23 08:58:45;;;;;;;43.17;26.50;;;;;;;-1.09;85.37;101135.72;5041607;28;20376;-68
2021/12/23 09:01:11;;;;;;;44.10;26.10;;;;;;;-1.08;85.64;101134.84;5041087;28;20041;-68
2021/12/23 09:03:36;;;;;;;47.45;26.50;;;;;;;-1.05;85.44;101137.38;5044210;28;20028;-68
2021/12/23 09:06:04;;;;;;;43.13;25.85;;;;;;;-1.02;85.30;101131.22;5033969;28;20538;-68
2021/12/23 09:08:30;;;;;;;39.17;23.88;;;;;;;-1.00;85.11;101121.59;5040187;28;20031;-68
2021/12/23 09:10:58;;;;;;;40.55;24.95;;;;;;;-0.97;85.48;101124.97;5051723;28;20152;-67
2021/12/23 09:13:25;;;;;;;49.83;28.83;;;;;;;-0.90;85.45;101122.25;5050156;28;20303;-68
2021/12/23 09:15:51;;;;;;;45.25;26.08;;;;;;;-0.87;85.56;101122.16;5041549;28;20040;-67
2021/12/23 09:18:19;;;;;;;44.05;25.60;;;;;;;-0.84;85.12;101127.31;5048116;28;20120;-67
2021/12/23 09:20:45;;;;;;;42.63;27.20;;;;;;;-0.81;85.47;101117.66;5048057;28;20464;-67
2021/12/23 09:23:11;;;;;;;43.38;26.52;;;;;;;-0.79;85.68;101121.06;5036712;28;20037;-67
2021/12/23 09:25:38;;;;;;;46.75;26.95;;;;;;;-0.75;85.14;101116.63;5041202;28;20095;-67
2021/12/23 09:28:22;;;;;;;44.90;26.08;;;;;;;-0.73;84.91;101116.59;5050394;28;20086;-67
2021/12/23 09:33:31;;;;;;;42.83;25.23;;;;;;;-0.66;85.05;101121.63;5006374;28;20043;-66
2021/12/23 09:35:57;;;;;;;43.67;26.42;;;;;;;-0.63;85.03;101115.50;5009073;28;20045;-67
2021/12/23 09:38:27;;;;;;;42.75;26.15;;;;;;;-0.59;84.89;101117.09;5007824;28;20037;-66
2021/12/23 09:41:06;;;;;;;42.58;26.98;;;;;;;-0.56;84.83;101115.28;5015872;28;21165;-67
2021/12/23 09:43:34;;;;;;;42.47;25.35;;;;;;;-0.51;85.02;101107.34;5035070;28;20717;-67
2021/12/23 09:46:00;;;;;;;43.70;26.02;;;;;;;-0.49;85.15;101100.31;5003205;28;20052;-67
2021/12/23 09:48:31;;;;;;;43.88;24.90;;;;;;;-0.46;84.88;101099.38;5046155;28;20028;-66
2021/12/23 09:51:00;;;;;;;42.30;25.90;;;;;;;-0.44;84.61;101101.03;5041552;28;20085;-68
2021/12/23 09:53:26;;;;;;;43.53;24.92;;;;;;;-0.41;84.73;101100.13;5045164;28;20041;-67
2021/12/23 09:55:53;;;;;;;42.95;26.33;;;;;;;-0.39;84.58;101093.94;5040967;28;20044;-66
2021/12/23 09:58:19;;;;;;;43.20;24.98;;;;;;;-0.36;84.45;101095.63;5050156;28;20025;-67
2021/12/23 10:00:45;;;;;;;41.50;26.20;;;;;;;-0.34;84.69;101082.53;5046670;28;20414;-66
2021/12/23 10:03:19;;;;;;;40.08;25.45;;;;;;;-0.32;84.79;101078.13;5043997;28;20048;-69
2021/12/23 10:05:45;;;;;;;45.67;25.42;;;;;;;-0.30;84.42;101076.31;5049425;28;20035;-69
2021/12/23 10:08:12;;;;;;;43.20;25.73;;;;;;;-0.28;84.87;101074.56;5047538;28;20029;-68
2021/12/23 10:10:46;;;;;;;41.70;24.95;;;;;;;-0.26;84.64;101084.03;5040314;28;20568;-68
2021/12/23 10:27:10;;;;;;;42.47;25.58;;;;;;;-0.05;85.12;101066.91;5020180;28;20103;-67
2021/12/23 10:38:14;;;;;;;43.00;25.67;;;;;;;0.10;85.15;101013.38;4979883;28;20145;-68
2021/12/23 10:40:45;;;;;;;44.37;25.50;;;;;;;0.13;84.89;101002.84;4969200;28;20045;-68
2021/12/23 10:43:38;;;;;;;41.20;25.65;;;;;;;0.17;85.71;100993.16;5010392;28;20037;-68
2021/12/23 10:46:21;;;;;;;43.33;25.50;;;;;;;0.22;85.56;100991.25;5038025;28;20102;-67
2021/12/23 10:49:26;;;;;;;43.13;25.15;;;;;;;0.30;85.27;100988.38;5048120;28;20033;-68
2021/12/23 10:52:03;;;;;;;43.75;25.05;;;;;;;0.35;85.74;100979.50;5037864;28;20037;-68
2021/12/23 11:00:37;;;;;;;43.28;26.10;;;;;;;0.53;85.51;100975.44;5049177;28;20099;-70
2021/12/23 11:06:16;;;;;;;41.58;24.42;;;;;;;0.67;85.22;100964.53;5033578;28;20238;-67
2021/12/23 11:29:00;;;;;;;39.30;24.15;;;;;;;1.22;84.78;100927.75;5039196;28;20044;-69
2021/12/23 11:37:10;;;;;;;40.13;24.40;;;;;;;1.45;84.28;100911.19;5048271;28;20051;-70
2021/12/23 11:40:04;;;;;;;39.60;23.45;;;;;;;1.52;84.23;100905.75;5041851;28;20025;-70
2021/12/23 11:42:40;;;;;;;37.70;24.30;;;;;;;1.58;83.96;100902.88;5044778;28;20427;-70
2021/12/23 11:45:07;;;;;;;38.22;23.75;;;;;;;1.63;84.05;100893.06;5051089;28;20033;-70
2021/12/23 11:47:33;;;;;;;35.42;23.05;;;;;;;1.70;83.44;100891.06;5044960;28;20035;-70
2021/12/23 11:49:59;;;;;;;36.95;24.20;;;;;;;1.75;84.13;100884.75;5041429;28;20029;-70
2021/12/23 11:52:24;;;;;;;39.20;22.52;;;;;;;1.81;84.12;100889.72;5046763;28;20017;-70
2021/12/23 11:54:50;;;;;;;39.15;23.92;;;;;;;1.88;83.89;100879.03;5045467;28;20039;-70
2021/12/23 11:57:21;;;;;;;37.30;23.15;;;;;;;1.93;83.52;100877.06;5046629;28;20036;-70
2021/12/23 12:00:03;;;;;;;35.72;23.02;;;;;;;2.01;83.39;100875.84;5037825;28;20079;-70
2021/12/23 12:02:32;;;;;;;36.50;22.05;;;;;;;2.09;83.68;100859.81;5048191;28;20479;-70
2021/12/23 12:05:01;;;;;;;37.90;23.30;;;;;;;2.14;82.86;100864.88;5042811;28;20083;-71
2021/12/23 12:07:27;;;;;;;;;;;;;;;2.21;84.14;100864.56;5039935;28;20021;-69
2021/12/23 12:09:55;;;;;;;35.83;20.25;;;;;;;2.26;82.90;100868.75;5048225;28;19913;-70
2021/12/23 12:12:21;;;;;;;34.13;21.58;;;;;;;2.32;82.43;100873.75;5042875;28;20369;-70
2021/12/23 12:14:47;;;;;;;36.75;22.42;;;;;;;2.35;82.28;100863.16;5052479;28;20024;-70
2021/12/23 12:17:35;;;;;;;36.97;22.35;;;;;;;2.41;82.80;100855.00;5051972;28;20025;-70
2021/12/23 12:20:03;;;;;;;37.13;22.02;;;;;;;2.43;82.27;100842.69;5049024;28;20029;-70